Main page
METAR-TAF:

METAR-TAF

Airports :

Val de Cans International Airport

Belém, Pará, Brazil

latitude: 01-23S, longitude: 048-29W, elevation: 16 m

Current weather observation

The report was made 1 hour and 2 minutes ago, at 17:00 UTC
Wind 8 kt from the Southeast
Temperature 32°C
Humidity 59%
Pressure 1012 hPa
Visibility 10 km or more
Broken clouds at a height of 4000 ft

METAR: SBBE 151700Z 13008KT 9999 BKN040 32/23 Q1012

Time: 15:02 (18:02 UTC)

Forecast

The report was made 2 hours and 19 minutes ago, at 15:43 UTC
Forecast valid from 15 at 18 UTC to 16 at 18 UTC
Wind 10 kt from the East
Visibility 10 km or more
Scattered clouds at a height of 3000 ft
Few clouds at a height of 4000 ft, Towering cumulus.
Becoming
from 15 at 22 UTC to 15 at 24 UTC
Wind 6 kt from the East/Northeast
Few clouds at a height of 3000 ft
Becoming
from 16 at 12 UTC to 16 at 14 UTC
Wind 10 kt from the East

TAF: SBBE 151543Z 1518/1618 10010KT 9999 SCT030 FEW040TCU TX33/1518Z TN25/1609Z BECMG 1522/1524 07006KT FEW030 BECMG 1612/1614 10010KT RMK PFV

Weather observations and forecasts of more than 4000 airports (METAR and TAF reports).

The available stations are represented by yellow and red dots on the map.

Hover mouse over dot to see the name of the station.

Then click to see weather observations and forecasts.

To change the map : click on the green buttons with a black cross to zoom in, on the green button with a dash to zoom out, or on the green arrows for adjacent maps.


METAR-TAF: